Terminal Aerodrome Forecast
Issued by NWS

Home | Current Version | Previous Version | Text Only | Print | Product List | Glossary Off
Versions: 1 2 3 4 5 6 7 8 9 10 11 12 13 14 15

439
FTUS43 KMPX 231120
TAFRNH
TAF
KRNH 231120Z 2312/2412 19007KT P6SM SCT120 BKN250
     FM231700 19009KT P6SM SCT050 BKN250
     FM240100 14005KT P6SM SCT050 BKN250
     FM240600 15004KT P6SM SCT250=

USA.gov is the U.S. government's official web portal to all federal, state and local government web resources and services.